createdAt,value
2019-02-06T00:02:13.306Z,46.84
2019-02-06T00:04:51.824Z,46.87
2019-02-06T00:07:33.041Z,46.86
2019-02-06T00:10:09.579Z,48.16
2019-02-06T00:12:42.774Z,46.93
2019-02-06T00:15:26.226Z,46.91
2019-02-06T00:18:00.361Z,46.64
2019-02-06T00:20:45.222Z,46.87
2019-02-06T00:23:16.136Z,46.45
2019-02-06T00:25:47.216Z,47.93
2019-02-06T00:28:20.559Z,46.70
2019-02-06T00:30:55.602Z,46.98
2019-02-06T00:33:28.978Z,47.51
2019-02-06T00:36:14.962Z,47.04
2019-02-06T00:39:07.667Z,47.09
2019-02-06T00:41:40.259Z,46.99
2019-02-06T00:44:11.260Z,47.55
2019-02-06T00:46:43.101Z,48.10
2019-02-06T00:49:15.475Z,47.97
2019-02-06T00:51:49.073Z,47.28
2019-02-06T00:54:21.868Z,47.50
2019-02-06T00:56:55.317Z,46.93
2019-02-06T00:59:26.570Z,47.02
2019-02-06T01:02:03.753Z,46.78
2019-02-06T01:04:36.911Z,46.74
2019-02-06T01:07:07.907Z,47.01
2019-02-06T01:09:43.043Z,46.77
2019-02-06T01:12:17.247Z,46.84
2019-02-06T01:14:50.473Z,46.73
2019-02-06T01:17:21.509Z,46.54
2019-02-06T01:19:55.379Z,46.54
2019-02-06T01:22:36.469Z,46.42
2019-02-06T01:25:15.363Z,46.49
2019-02-06T01:28:02.252Z,46.54
2019-02-06T01:30:44.894Z,46.19
2019-02-06T01:33:24.886Z,46.73
2019-02-06T01:35:56.682Z,47.33
2019-02-06T01:38:30.400Z,46.45
2019-02-06T01:41:04.776Z,46.86
2019-02-06T01:43:37.109Z,46.55
2019-02-06T01:46:08.289Z,47.15
2019-02-06T01:48:40.655Z,47.76
2019-02-06T01:51:12.538Z,47.62
2019-02-06T01:53:45.853Z,47.80
2019-02-06T01:56:21.127Z,48.21
2019-02-06T01:58:55.097Z,47.62
2019-02-06T02:01:25.764Z,47.30
2019-02-06T02:03:57.941Z,47.73
2019-02-06T02:06:36.351Z,47.72
2019-02-06T02:09:23.217Z,48.06
2019-02-06T02:11:56.439Z,47.55
2019-02-06T02:14:32.990Z,47.56
2019-02-06T02:17:07.566Z,47.55
2019-02-06T02:19:39.498Z,48.05
2019-02-06T02:22:17.123Z,47.55
2019-02-06T02:24:49.243Z,47.38
2019-02-06T02:27:22.418Z,47.88
2019-02-06T02:29:53.387Z,48.90
2019-02-06T02:32:25.480Z,47.23
2019-02-06T02:35:00.774Z,47.15
2019-02-06T02:37:33.983Z,46.99
2019-02-06T02:40:22.723Z,47.55
2019-02-06T02:43:00.325Z,47.84
2019-02-06T02:45:40.065Z,47.76
2019-02-06T02:48:15.068Z,47.20
2019-02-06T02:50:48.982Z,47.05
2019-02-06T02:53:23.911Z,47.63
2019-02-06T02:55:57.466Z,47.07
2019-02-06T02:58:35.162Z,47.52
2019-02-06T03:01:33.754Z,48.15
2019-02-06T03:04:13.272Z,47.69
2019-02-06T03:06:45.838Z,47.59
2019-02-06T03:09:23.023Z,48.17
2019-02-06T03:11:58.624Z,49.65
2019-02-06T03:14:30.941Z,48.23
2019-02-06T03:17:04.103Z,48.09
2019-02-06T03:19:36.496Z,48.39
2019-02-06T03:22:11.855Z,48.45
2019-02-06T03:24:44.216Z,49.22
2019-02-06T03:27:18.712Z,48.30
2019-02-06T03:29:53.846Z,50.22
2019-02-06T03:32:28.327Z,50.40
2019-02-06T03:35:05.218Z,49.88
2019-02-06T03:37:41.142Z,49.12
2019-02-06T03:40:20.142Z,49.37
2019-02-06T03:42:55.671Z,49.42
2019-02-06T03:45:37.778Z,48.89
2019-02-06T03:48:26.800Z,48.74
2019-02-06T03:50:57.763Z,49.19
2019-02-06T03:53:35.189Z,48.57
2019-02-06T03:56:11.451Z,48.27
2019-02-06T03:58:42.972Z,47.68
2019-02-06T04:01:19.008Z,48.75
2019-02-06T04:03:53.787Z,48.33
2019-02-06T04:06:26.526Z,48.05
2019-02-06T04:08:58.062Z,48.46
2019-02-06T04:11:36.964Z,49.49
2019-02-06T04:14:11.047Z,48.88
2019-02-06T04:16:51.686Z,49.19
2019-02-06T04:19:28.830Z,48.20
2019-02-06T04:22:05.142Z,48.05
2019-02-06T04:24:36.034Z,49.11
2019-02-06T04:27:19.731Z,48.77
2019-02-06T04:29:56.331Z,48.36
2019-02-06T04:32:30.632Z,47.99
2019-02-06T04:35:02.388Z,47.79
2019-02-06T04:37:34.721Z,48.47
2019-02-06T04:40:07.663Z,50.72
2019-02-06T04:42:39.108Z,49.08
2019-02-06T04:45:11.702Z,48.42
2019-02-06T04:47:45.513Z,48.08
2019-02-06T04:50:21.057Z,49.08
2019-02-06T04:53:06.497Z,48.53
2019-02-06T04:55:41.552Z,48.47
2019-02-06T04:58:18.158Z,48.75
2019-02-06T05:01:03.911Z,49.29
2019-02-06T05:03:49.560Z,48.66
2019-02-06T05:06:27.431Z,49.21
2019-02-06T05:09:04.775Z,48.54
2019-02-06T05:11:37.120Z,48.88
2019-02-06T05:14:14.251Z,49.28
2019-02-06T05:16:48.447Z,48.76
2019-02-06T05:19:19.683Z,48.66
2019-02-06T05:21:52.363Z,49.55
2019-02-06T05:24:38.728Z,49.50
2019-02-06T05:27:11.486Z,51.31
2019-02-06T05:29:42.455Z,49.13
2019-02-06T05:32:24.094Z,50.59
2019-02-06T05:34:57.460Z,49.78
2019-02-06T05:37:40.006Z,50.90
2019-02-06T05:40:20.652Z,51.26
2019-02-06T05:42:56.162Z,52.06
2019-02-06T05:48:27.246Z,50.50
2019-02-06T05:51:03.557Z,49.42
2019-02-06T05:53:37.187Z,48.70
2019-02-06T05:56:07.428Z,49.47
2019-02-06T05:58:39.466Z,49.53
2019-02-06T06:01:14.422Z,48.91
2019-02-06T06:03:46.483Z,50.22
2019-02-06T06:06:18.447Z,49.42
2019-02-06T06:08:54.492Z,48.99
2019-02-06T06:11:27.084Z,49.62
2019-02-06T06:14:01.268Z,48.46
2019-02-06T06:16:33.572Z,49.33
2019-02-06T06:19:08.007Z,48.79
2019-02-06T06:21:52.718Z,48.45
2019-02-06T06:24:27.231Z,48.36
2019-02-06T06:26:59.947Z,48.20
2019-02-06T06:29:44.208Z,48.89
2019-02-06T06:32:17.180Z,49.72
2019-02-06T06:34:54.290Z,50.12
2019-02-06T06:40:47.652Z,48.45
2019-02-06T06:43:29.978Z,49.21
2019-02-06T06:46:00.441Z,48.15
2019-02-06T06:48:32.039Z,49.30
2019-02-06T06:51:04.415Z,47.61
2019-02-06T06:53:35.521Z,47.19
2019-02-06T06:56:09.575Z,46.41
2019-02-06T06:58:42.978Z,46.13
2019-02-06T07:01:17.752Z,48.29
2019-02-06T07:04:00.027Z,48.14
2019-02-06T07:06:31.315Z,49.38
2019-02-06T07:09:12.279Z,48.16
2019-02-06T07:11:50.632Z,49.16
2019-02-06T07:14:20.800Z,48.70
2019-02-06T07:16:55.721Z,49.56
2019-02-06T07:19:28.718Z,50.02
2019-02-06T07:22:03.727Z,50.73
2019-02-06T07:24:39.312Z,50.79
2019-02-06T07:27:11.497Z,50.45
2019-02-06T07:29:45.888Z,50.25
2019-02-06T07:32:20.124Z,49.95
2019-02-06T07:35:00.341Z,49.49
2019-02-06T07:37:34.685Z,49.56
2019-02-06T07:40:20.585Z,51.11
2019-02-06T07:43:00.835Z,51.28
2019-02-06T07:45:34.706Z,50.00
2019-02-06T07:48:09.757Z,49.50
2019-02-06T07:50:43.900Z,49.57
2019-02-06T07:53:18.312Z,48.17
2019-02-06T07:55:53.435Z,48.31
2019-02-06T07:58:28.864Z,47.55
2019-02-06T08:01:00.160Z,47.76
2019-02-06T08:03:33.449Z,46.39
2019-02-06T08:06:04.774Z,47.91
2019-02-06T08:08:36.527Z,47.97
2019-02-06T08:11:09.493Z,47.08
2019-02-06T08:13:40.154Z,46.62
2019-02-06T08:16:11.027Z,46.42
2019-02-06T08:18:42.933Z,46.59
2019-02-06T08:21:14.120Z,47.32
2019-02-06T08:23:48.396Z,45.90
2019-02-06T08:26:20.539Z,45.38
2019-02-06T08:28:52.191Z,45.59
2019-02-06T08:31:24.389Z,45.92
2019-02-06T08:33:54.952Z,45.78
2019-02-06T08:36:26.091Z,45.70
2019-02-06T08:38:59.402Z,46.15
2019-02-06T08:41:34.219Z,45.46
2019-02-06T08:44:08.478Z,45.56
2019-02-06T08:46:40.944Z,45.82
2019-02-06T08:49:12.729Z,46.20
2019-02-06T08:51:47.844Z,45.57
2019-02-06T08:54:20.443Z,44.61
2019-02-06T08:56:54.402Z,44.89
2019-02-06T08:59:27.411Z,45.64
2019-02-06T09:02:01.276Z,45.84
2019-02-06T09:04:34.513Z,44.93
2019-02-06T09:07:07.089Z,44.78
2019-02-06T09:09:37.554Z,44.96
2019-02-06T09:12:11.692Z,45.74
2019-02-06T09:14:42.164Z,44.30
2019-02-06T09:17:14.605Z,44.43
2019-02-06T09:19:46.241Z,43.54
2019-02-06T09:22:17.410Z,43.72
2019-02-06T09:24:49.304Z,43.74
2019-02-06T09:27:29.299Z,42.68
2019-02-06T09:30:01.016Z,43.19
2019-02-06T09:32:35.745Z,44.23
2019-02-06T09:35:08.235Z,43.33
2019-02-06T09:37:39.574Z,42.74
2019-02-06T09:40:13.953Z,42.14
2019-02-06T09:42:52.001Z,41.38
2019-02-06T09:45:25.311Z,40.47
2019-02-06T09:48:00.650Z,40.90
2019-02-06T09:50:51.148Z,40.74
2019-02-06T09:53:23.378Z,41.13
2019-02-06T09:55:55.744Z,40.81
2019-02-06T09:58:32.505Z,40.25
2019-02-06T10:01:06.166Z,39.90
2019-02-06T10:03:37.686Z,39.99
2019-02-06T10:06:08.359Z,40.28
2019-02-06T10:08:39.319Z,39.74
2019-02-06T10:11:10.275Z,39.62
2019-02-06T10:13:46.098Z,39.49
2019-02-06T10:16:20.266Z,39.17
2019-02-06T10:19:06.289Z,39.19
2019-02-06T10:21:38.424Z,38.93
2019-02-06T10:24:11.423Z,38.56
2019-02-06T10:26:45.984Z,38.68
2019-02-06T10:29:18.906Z,40.04
2019-02-06T10:31:50.135Z,40.09
2019-02-06T10:34:21.586Z,38.89
2019-02-06T10:36:54.657Z,37.96
2019-02-06T10:39:34.687Z,38.23
2019-02-06T10:42:05.542Z,37.75
2019-02-06T10:44:38.482Z,38.14
2019-02-06T10:47:10.563Z,37.03
2019-02-06T10:49:44.115Z,36.01
2019-02-06T10:52:15.363Z,36.69
2019-02-06T10:54:53.117Z,36.88
2019-02-06T10:57:26.435Z,37.10
2019-02-06T11:00:00.880Z,37.01
2019-02-06T11:02:34.765Z,36.32
2019-02-06T11:05:06.464Z,36.33
2019-02-06T11:07:39.775Z,35.55
2019-02-06T11:10:13.034Z,35.69
2019-02-06T11:12:44.504Z,35.98
2019-02-06T11:15:23.066Z,35.59
2019-02-06T11:17:56.801Z,35.81
2019-02-06T11:20:29.080Z,35.03
2019-02-06T11:22:59.550Z,35.51
2019-02-06T11:25:33.010Z,34.83
2019-02-06T11:28:03.501Z,34.23
2019-02-06T11:30:37.743Z,34.93
2019-02-06T11:33:11.077Z,35.20
2019-02-06T11:35:43.736Z,34.56
2019-02-06T11:38:15.247Z,34.70
2019-02-06T11:40:46.936Z,34.89
2019-02-06T11:43:19.569Z,34.76
2019-02-06T11:45:51.991Z,34.78
2019-02-06T11:48:25.552Z,34.46
2019-02-06T11:50:55.970Z,34.05
2019-02-06T11:53:31.495Z,34.36
2019-02-06T11:56:03.595Z,33.54
2019-02-06T11:58:35.364Z,33.70
2019-02-06T12:01:13.014Z,33.55
2019-02-06T12:03:43.188Z,33.56
2019-02-06T12:06:18.812Z,34.18
2019-02-06T12:08:49.550Z,33.74
2019-02-06T12:11:23.598Z,34.17
2019-02-06T12:13:54.367Z,33.34
2019-02-06T12:16:31.937Z,33.51
2019-02-06T12:19:02.695Z,33.57
2019-02-06T12:21:33.352Z,32.46
2019-02-06T12:24:04.020Z,31.43
2019-02-06T12:26:37.469Z,31.34
2019-02-06T12:29:12.366Z,31.59
2019-02-06T12:31:45.265Z,29.84
2019-02-06T12:34:17.277Z,29.10
2019-02-06T12:36:49.233Z,28.46
2019-02-06T12:39:22.705Z,26.45
2019-02-06T12:41:56.764Z,25.03
2019-02-06T12:44:32.313Z,24.89
2019-02-06T12:47:05.958Z,24.42
2019-02-06T12:49:43.406Z,23.77
2019-02-06T12:52:14.847Z,24.30
2019-02-06T12:54:48.208Z,23.89
2019-02-06T12:57:23.182Z,25.76
2019-02-06T12:59:57.434Z,26.99
2019-02-06T13:02:35.975Z,27.39
2019-02-06T13:05:09.421Z,27.96
2019-02-06T13:07:40.851Z,29.28
2019-02-06T13:10:16.911Z,28.70
2019-02-06T13:12:48.910Z,29.85
2019-02-06T13:15:19.605Z,29.73
2019-02-06T13:18:06.023Z,29.82
2019-02-06T13:20:38.261Z,29.14
2019-02-06T13:23:09.628Z,29.55
2019-02-06T13:25:40.396Z,30.24
2019-02-06T13:28:11.797Z,30.31
2019-02-06T13:30:42.566Z,29.93
2019-02-06T13:33:19.783Z,30.38
2019-02-06T13:35:50.288Z,30.28
2019-02-06T13:38:23.416Z,30.32
2019-02-06T13:40:56.947Z,30.21
2019-02-06T13:43:29.246Z,30.12
2019-02-06T13:46:00.361Z,30.34
2019-02-06T13:48:33.735Z,29.60
2019-02-06T13:51:17.604Z,29.63
2019-02-06T13:53:48.891Z,29.77
2019-02-06T13:56:21.097Z,29.83
2019-02-06T13:58:56.451Z,29.94
2019-02-06T14:01:32.575Z,29.44
2019-02-06T14:04:06.047Z,29.15
2019-02-06T14:06:40.185Z,29.30
2019-02-06T14:09:22.841Z,29.07
2019-02-06T14:11:52.452Z,28.89
2019-02-06T14:14:26.747Z,28.97
2019-02-06T14:16:57.256Z,29.64
2019-02-06T14:19:30.799Z,29.64
2019-02-06T14:22:03.125Z,30.60
2019-02-06T14:24:43.846Z,30.44
2019-02-06T14:27:37.727Z,30.25
2019-02-06T14:30:40.148Z,30.31
2019-02-06T14:33:51.054Z,29.96
2019-02-06T14:37:04.738Z,29.73
2019-02-06T14:40:01.016Z,30.02
2019-02-06T14:43:00.318Z,29.80
2019-02-06T14:46:24.263Z,30.03
2019-02-06T14:49:32.084Z,30.04
2019-02-06T14:52:33.538Z,31.17
2019-02-06T14:55:31.311Z,30.97
2019-02-06T14:58:54.182Z,31.21
2019-02-06T15:02:09.763Z,31.38
2019-02-06T15:05:21.143Z,31.29
2019-02-06T15:08:14.090Z,31.87
2019-02-06T15:11:06.432Z,32.11
2019-02-06T15:14:17.205Z,32.37
2019-02-06T15:17:24.653Z,32.60
2019-02-06T15:20:33.146Z,33.23
2019-02-06T15:23:18.895Z,33.16
2019-02-06T15:26:29.374Z,33.21
2019-02-06T15:29:37.428Z,33.85
2019-02-06T15:33:12.113Z,33.85
2019-02-06T15:36:05.525Z,33.88
2019-02-06T15:39:20.976Z,33.88
2019-02-06T15:42:17.738Z,34.13
2019-02-06T15:45:44.880Z,34.79
2019-02-06T15:49:12.259Z,34.30
2019-02-06T15:52:35.833Z,35.00
2019-02-06T15:55:58.629Z,35.02
2019-02-06T15:58:42.543Z,35.58
2019-02-06T16:02:09.424Z,35.50
2019-02-06T16:05:47.336Z,36.45
2019-02-06T16:08:58.246Z,37.05
2019-02-06T16:12:24.488Z,36.39
2019-02-06T16:15:17.223Z,35.93
2019-02-06T16:18:22.088Z,36.49
2019-02-06T16:21:11.008Z,37.02
2019-02-06T16:24:44.393Z,35.83
2019-02-06T16:27:49.781Z,36.51
2019-02-06T16:30:49.017Z,37.14
2019-02-06T16:34:02.983Z,36.50
2019-02-06T16:37:18.498Z,36.76
2019-02-06T16:40:43.658Z,37.56
2019-02-06T16:43:45.617Z,38.13
2019-02-06T16:46:40.009Z,39.31
2019-02-06T16:49:47.016Z,39.68
2019-02-06T16:53:11.803Z,39.85
2019-02-06T16:56:13.844Z,39.15
2019-02-06T16:59:14.687Z,39.17
2019-02-06T17:02:35.014Z,38.69
2019-02-06T17:06:00.284Z,38.31
2019-02-06T17:09:08.616Z,38.26
2019-02-06T17:12:04.427Z,37.71
2019-02-06T17:15:33.987Z,37.34
2019-02-06T17:18:44.783Z,36.76
2019-02-06T17:21:53.951Z,37.76
2019-02-06T17:24:56.703Z,37.46
2019-02-06T17:28:05.362Z,37.60
2019-02-06T17:31:15.601Z,37.45
2019-02-06T17:34:22.301Z,37.24
2019-02-06T17:37:27.004Z,38.16
2019-02-06T17:40:53.280Z,37.99
2019-02-06T17:44:00.446Z,37.71
2019-02-06T17:47:04.855Z,37.55
2019-02-06T17:50:33.549Z,37.54
2019-02-06T17:53:24.055Z,38.07
2019-02-06T17:55:57.515Z,37.98
2019-02-06T17:58:31.199Z,37.78
2019-02-06T18:01:10.179Z,38.75
2019-02-06T18:03:59.978Z,39.31
2019-02-06T18:06:36.243Z,39.69
2019-02-06T18:09:22.628Z,38.83
2019-02-06T18:11:53.147Z,39.83
2019-02-06T18:14:27.282Z,39.50
2019-02-06T18:17:04.611Z,39.07
2019-02-06T18:19:39.891Z,39.66
2019-02-06T18:22:11.990Z,39.25
2019-02-06T18:24:49.266Z,40.52
2019-02-06T18:27:23.582Z,40.45
2019-02-06T18:30:00.011Z,40.29
2019-02-06T18:32:39.679Z,39.84
2019-02-06T18:35:14.427Z,39.80
2019-02-06T18:37:51.682Z,40.10
2019-02-06T18:40:25.392Z,39.61
2019-02-06T18:42:58.136Z,39.98
2019-02-06T18:45:31.173Z,40.25
2019-02-06T18:48:08.687Z,40.52
2019-02-06T18:50:44.894Z,41.46
2019-02-06T18:53:21.656Z,41.50
2019-02-06T18:55:54.836Z,41.62
2019-02-06T18:58:27.599Z,41.89
2019-02-06T19:01:02.737Z,41.47
2019-02-06T19:03:38.287Z,42.31
2019-02-06T19:06:10.611Z,42.24
2019-02-06T19:08:43.619Z,42.81
2019-02-06T19:11:16.241Z,42.73
2019-02-06T19:13:49.932Z,42.51
2019-02-06T19:16:27.183Z,42.76
2019-02-06T19:19:00.177Z,42.03
2019-02-06T19:21:33.877Z,42.26
2019-02-06T19:24:08.872Z,43.12
2019-02-06T19:26:39.633Z,43.13
2019-02-06T19:29:11.662Z,43.43
2019-02-06T19:31:43.571Z,43.29
2019-02-06T19:34:17.487Z,44.05
2019-02-06T19:36:49.084Z,43.14
2019-02-06T19:39:21.027Z,42.99
2019-02-06T19:41:51.465Z,43.22
2019-02-06T19:44:23.259Z,44.91
2019-02-06T19:47:05.804Z,44.31
2019-02-06T19:49:37.821Z,44.38
2019-02-06T19:52:09.826Z,44.98
2019-02-06T19:54:42.446Z,44.91
2019-02-06T19:57:14.840Z,45.02
2019-02-06T19:59:45.553Z,45.39
2019-02-06T20:02:18.100Z,45.77
2019-02-06T20:04:48.323Z,45.41
2019-02-06T20:07:20.768Z,46.19
2019-02-06T20:09:52.019Z,46.53
2019-02-06T20:12:24.202Z,46.11
2019-02-06T20:15:01.386Z,46.26
2019-02-06T20:17:34.528Z,47.38
2019-02-06T20:20:07.263Z,47.47
2019-02-06T20:22:38.794Z,46.46
2019-02-06T20:25:11.134Z,47.49
2019-02-06T20:27:45.004Z,47.10
2019-02-06T20:30:25.125Z,46.93
2019-02-06T20:33:00.346Z,48.15
2019-02-06T20:35:35.086Z,46.57
2019-02-06T20:38:06.322Z,48.18
2019-02-06T20:40:39.975Z,47.60
2019-02-06T20:43:21.732Z,46.46
2019-02-06T20:45:49.053Z,46.30
2019-02-06T20:48:21.541Z,46.71
2019-02-06T20:50:52.662Z,45.99
2019-02-06T20:53:23.539Z,45.86
2019-02-06T20:55:55.290Z,46.03
2019-02-06T20:58:27.420Z,45.67
2019-02-06T21:00:59.852Z,45.57
2019-02-06T21:03:33.403Z,46.50
2019-02-06T21:06:07.163Z,47.02
2019-02-06T21:08:39.055Z,47.96
2019-02-06T21:11:11.791Z,48.67
2019-02-06T21:13:42.940Z,49.38
2019-02-06T21:16:13.195Z,48.21
2019-02-06T21:18:43.555Z,48.45
2019-02-06T21:21:16.412Z,48.41
2019-02-06T21:23:49.462Z,47.65
2019-02-06T21:26:20.076Z,48.20
2019-02-06T21:28:50.599Z,47.40
2019-02-06T21:31:22.236Z,48.56
2019-02-06T21:33:54.594Z,48.76
2019-02-06T21:36:25.795Z,47.53
2019-02-06T21:38:56.203Z,48.31
2019-02-06T21:41:27.676Z,48.82
2019-02-06T21:43:59.620Z,48.25
2019-02-06T21:46:30.418Z,47.71
2019-02-06T21:49:02.695Z,47.73
2019-02-06T21:51:38.162Z,47.84
2019-02-06T21:54:11.083Z,47.17
2019-02-06T21:56:46.104Z,47.80
2019-02-06T21:59:19.342Z,48.16
2019-02-06T22:01:51.030Z,47.81
2019-02-06T22:04:21.681Z,47.77
2019-02-06T22:06:52.827Z,48.26
2019-02-06T22:09:25.659Z,48.36
2019-02-06T22:11:56.627Z,48.14
2019-02-06T22:14:27.258Z,48.13
2019-02-06T22:17:00.549Z,48.37
2019-02-06T22:19:30.984Z,48.02
2019-02-06T22:22:02.041Z,47.23
2019-02-06T22:24:33.480Z,46.98
2019-02-06T22:27:04.661Z,46.78
2019-02-06T22:29:35.351Z,47.68
2019-02-06T22:32:06.250Z,46.89
2019-02-06T22:34:36.985Z,46.58
2019-02-06T22:37:08.907Z,46.54
2019-02-06T22:39:40.956Z,45.44
2019-02-06T22:42:11.305Z,46.35
2019-02-06T22:44:42.868Z,45.93
2019-02-06T22:47:14.508Z,45.92
2019-02-06T22:49:45.577Z,45.99
2019-02-06T22:52:16.228Z,45.33
2019-02-06T22:54:47.545Z,45.50
2019-02-06T22:57:20.038Z,46.23
2019-02-06T22:59:50.340Z,46.18
2019-02-06T23:02:21.188Z,46.38
2019-02-06T23:04:52.417Z,46.85
2019-02-06T23:07:23.577Z,46.91
2019-02-06T23:09:56.306Z,46.24
2019-02-06T23:12:28.032Z,46.32
2019-02-06T23:14:59.977Z,46.76
2019-02-06T23:17:32.420Z,46.14
2019-02-06T23:20:04.568Z,46.35
2019-02-06T23:22:35.373Z,45.76
2019-02-06T23:25:08.190Z,45.72
2019-02-06T23:27:40.097Z,46.57
2019-02-06T23:30:13.830Z,45.84
2019-02-06T23:32:45.768Z,46.14
2019-02-06T23:35:17.342Z,46.03
2019-02-06T23:37:48.486Z,45.71
2019-02-06T23:40:20.452Z,45.46
2019-02-06T23:42:52.014Z,45.18
2019-02-06T23:45:24.665Z,44.97
2019-02-06T23:47:56.661Z,45.00
2019-02-06T23:50:29.625Z,44.93
2019-02-06T23:53:01.294Z,44.81
2019-02-06T23:55:33.663Z,44.55
2019-02-06T23:58:07.350Z,44.39
